New London, Connecticut
Current Conditions -  °F | °C
As of 3:56 AM on Sunday 23 Nov 2014 (Local Time) from KGON Reporting Station
Overcast Overcast  
Wind Chill: 39°   Ceiling: 9000
Heat Index: 45°   Visibility: 7mi
Dew Point: 30°   Wind: 14mph
Humidity: 56%   Direction: 250°WSW
Pressure: 30.15"   Gusts: 22mph
Location:  41.36°N, 72.1°W
Report Text: KGON 230856Z AUTO 25012G19KT 7SM OVC090 07/M01 A3015 RMK AO2 SLP210 T00721011 50000
Loading
Personal Weather Stations






























Interactive Weather Map New forecast layout! Learn more

10-Day Weather Forecast

Advertisements
Track Severe Weather on mobile